sensor_id;sensor_type;location;lat;lon;timestamp;P1;durP1;ratioP1;P2;durP2;ratioP2
4909;SDS011;2470;49.868;8.660;2023-05-10T00:02:07;1.20;;;0.90;;
4909;SDS011;2470;49.868;8.660;2023-05-10T00:04:32;10.07;;;1.00;;
4909;SDS011;2470;49.868;8.660;2023-05-10T00:06:58;0.93;;;0.83;;
4909;SDS011;2470;49.868;8.660;2023-05-10T00:09:23;1.20;;;1.10;;
4909;SDS011;2470;49.868;8.660;2023-05-10T00:11:49;1.25;;;0.98;;
4909;SDS011;2470;49.868;8.660;2023-05-10T00:14:15;1.07;;;1.00;;
4909;SDS011;2470;49.868;8.660;2023-05-10T00:16:40;1.30;;;0.90;;
4909;SDS011;2470;49.868;8.660;2023-05-10T00:19:06;1.10;;;1.00;;
4909;SDS011;2470;49.868;8.660;2023-05-10T00:21:31;2.17;;;0.70;;
4909;SDS011;2470;49.868;8.660;2023-05-10T00:23:58;1.00;;;0.90;;
4909;SDS011;2470;49.868;8.660;2023-05-10T00:26:24;0.90;;;0.90;;
4909;SDS011;2470;49.868;8.660;2023-05-10T00:28:49;1.47;;;1.37;;
4909;SDS011;2470;49.868;8.660;2023-05-10T00:31:15;0.90;;;0.90;;
4909;SDS011;2470;49.868;8.660;2023-05-10T00:33:40;1.30;;;1.20;;
4909;SDS011;2470;49.868;8.660;2023-05-10T00:36:06;1.23;;;1.13;;
4909;SDS011;2470;49.868;8.660;2023-05-10T00:38:32;1.10;;;1.00;;
4909;SDS011;2470;49.868;8.660;2023-05-10T00:40:58;1.10;;;1.05;;
4909;SDS011;2470;49.868;8.660;2023-05-10T00:43:23;1.43;;;1.20;;
4909;SDS011;2470;49.868;8.660;2023-05-10T00:45:49;1.33;;;1.00;;
4909;SDS011;2470;49.868;8.660;2023-05-10T00:48:14;1.10;;;1.00;;
4909;SDS011;2470;49.868;8.660;2023-05-10T00:50:40;1.20;;;1.10;;
4909;SDS011;2470;49.868;8.660;2023-05-10T00:53:06;1.23;;;1.00;;
4909;SDS011;2470;49.868;8.660;2023-05-10T00:55:33;1.10;;;1.00;;
4909;SDS011;2470;49.868;8.660;2023-05-10T00:57:58;1.20;;;1.03;;
4909;SDS011;2470;49.868;8.660;2023-05-10T01:00:24;3.13;;;1.00;;
4909;SDS011;2470;49.868;8.660;2023-05-10T01:02:50;1.07;;;0.97;;
4909;SDS011;2470;49.868;8.660;2023-05-10T01:05:16;1.00;;;0.90;;
4909;SDS011;2470;49.868;8.660;2023-05-10T01:07:41;1.15;;;1.08;;
4909;SDS011;2470;49.868;8.660;2023-05-10T01:10:07;1.90;;;1.50;;
4909;SDS011;2470;49.868;8.660;2023-05-10T01:12:34;0.90;;;0.90;;
4909;SDS011;2470;49.868;8.660;2023-05-10T01:15:02;1.00;;;0.95;;
4909;SDS011;2470;49.868;8.660;2023-05-10T01:17:29;2.00;;;1.20;;
4909;SDS011;2470;49.868;8.660;2023-05-10T01:19:55;4.90;;;1.42;;
4909;SDS011;2470;49.868;8.660;2023-05-10T01:22:45;0.93;;;0.93;;
4909;SDS011;2470;49.868;8.660;2023-05-10T01:33:43;1.57;;;1.30;;
4909;SDS011;2470;49.868;8.660;2023-05-10T01:36:42;1.57;;;1.13;;
4909;SDS011;2470;49.868;8.660;2023-05-10T01:39:11;1.40;;;1.30;;
4909;SDS011;2470;49.868;8.660;2023-05-10T01:41:55;1.30;;;1.20;;
4909;SDS011;2470;49.868;8.660;2023-05-10T01:47:44;1.13;;;1.07;;
4909;SDS011;2470;49.868;8.660;2023-05-10T01:50:18;1.40;;;1.30;;
4909;SDS011;2470;49.868;8.660;2023-05-10T01:52:51;1.67;;;1.30;;
4909;SDS011;2470;49.868;8.660;2023-05-10T01:55:20;1.80;;;1.70;;
4909;SDS011;2470;49.868;8.660;2023-05-10T01:57:48;1.47;;;1.33;;
4909;SDS011;2470;49.868;8.660;2023-05-10T02:00:23;2.23;;;1.80;;
4909;SDS011;2470;49.868;8.660;2023-05-10T02:02:50;1.40;;;1.30;;
4909;SDS011;2470;49.868;8.660;2023-05-10T02:05:17;1.77;;;1.67;;
4909;SDS011;2470;49.868;8.660;2023-05-10T02:07:44;2.27;;;1.70;;
4909;SDS011;2470;49.868;8.660;2023-05-10T02:10:11;1.73;;;1.57;;
4909;SDS011;2470;49.868;8.660;2023-05-10T02:12:41;4.10;;;1.80;;
4909;SDS011;2470;49.868;8.660;2023-05-10T02:15:10;1.50;;;1.40;;
4909;SDS011;2470;49.868;8.660;2023-05-10T02:17:37;2.73;;;1.70;;
4909;SDS011;2470;49.868;8.660;2023-05-10T02:20:05;1.87;;;1.70;;
4909;SDS011;2470;49.868;8.660;2023-05-10T02:22:33;4.63;;;1.70;;
4909;SDS011;2470;49.868;8.660;2023-05-10T02:25:00;1.90;;;1.70;;
4909;SDS011;2470;49.868;8.660;2023-05-10T02:27:27;7.00;;;1.90;;
4909;SDS011;2470;49.868;8.660;2023-05-10T02:29:53;2.00;;;1.60;;
4909;SDS011;2470;49.868;8.660;2023-05-10T02:32:20;6.00;;;1.83;;
4909;SDS011;2470;49.868;8.660;2023-05-10T02:34:47;1.40;;;1.30;;
4909;SDS011;2470;49.868;8.660;2023-05-10T02:37:16;2.03;;;1.80;;
4909;SDS011;2470;49.868;8.660;2023-05-10T02:39:46;2.90;;;1.60;;
4909;SDS011;2470;49.868;8.660;2023-05-10T02:42:15;2.30;;;2.10;;
4909;SDS011;2470;49.868;8.660;2023-05-10T02:44:43;1.70;;;1.60;;
4909;SDS011;2470;49.868;8.660;2023-05-10T02:47:10;1.83;;;1.70;;
4909;SDS011;2470;49.868;8.660;2023-05-10T02:49:36;2.03;;;1.67;;
4909;SDS011;2470;49.868;8.660;2023-05-10T02:52:01;2.93;;;1.97;;
4909;SDS011;2470;49.868;8.660;2023-05-10T02:54:33;1.93;;;1.67;;
4909;SDS011;2470;49.868;8.660;2023-05-10T02:57:00;2.47;;;2.07;;
4909;SDS011;2470;49.868;8.660;2023-05-10T02:59:30;1.77;;;1.67;;
4909;SDS011;2470;49.868;8.660;2023-05-10T03:01:56;2.43;;;2.00;;
4909;SDS011;2470;49.868;8.660;2023-05-10T03:04:21;1.90;;;1.63;;
4909;SDS011;2470;49.868;8.660;2023-05-10T03:06:47;2.13;;;1.87;;
4909;SDS011;2470;49.868;8.660;2023-05-10T03:09:12;3.10;;;2.30;;
4909;SDS011;2470;49.868;8.660;2023-05-10T03:11:55;2.17;;;1.97;;
4909;SDS011;2470;49.868;8.660;2023-05-10T03:14:34;1.90;;;1.70;;
4909;SDS011;2470;49.868;8.660;2023-05-10T03:17:30;2.30;;;1.93;;
4909;SDS011;2470;49.868;8.660;2023-05-10T03:20:26;1.70;;;1.60;;
4909;SDS011;2470;49.868;8.660;2023-05-10T03:23:00;1.90;;;1.80;;
4909;SDS011;2470;49.868;8.660;2023-05-10T03:25:31;2.60;;;2.07;;
4909;SDS011;2470;49.868;8.660;2023-05-10T03:27:57;3.40;;;2.30;;
4909;SDS011;2470;49.868;8.660;2023-05-10T03:30:23;2.43;;;2.23;;
4909;SDS011;2470;49.868;8.660;2023-05-10T03:32:49;2.03;;;1.90;;
4909;SDS011;2470;49.868;8.660;2023-05-10T03:35:15;2.13;;;1.80;;
4909;SDS011;2470;49.868;8.660;2023-05-10T03:37:41;2.03;;;1.50;;
4909;SDS011;2470;49.868;8.660;2023-05-10T03:40:06;4.43;;;2.27;;
4909;SDS011;2470;49.868;8.660;2023-05-10T03:42:33;3.53;;;2.20;;
4909;SDS011;2470;49.868;8.660;2023-05-10T03:44:58;1.40;;;1.30;;
4909;SDS011;2470;49.868;8.660;2023-05-10T03:47:24;2.03;;;1.83;;
4909;SDS011;2470;49.868;8.660;2023-05-10T03:49:49;2.10;;;1.90;;
4909;SDS011;2470;49.868;8.660;2023-05-10T03:52:15;5.60;;;2.10;;
4909;SDS011;2470;49.868;8.660;2023-05-10T03:54:41;3.07;;;1.63;;
4909;SDS011;2470;49.868;8.660;2023-05-10T03:57:06;2.07;;;1.87;;
4909;SDS011;2470;49.868;8.660;2023-05-10T03:59:32;2.10;;;1.87;;
4909;SDS011;2470;49.868;8.660;2023-05-10T04:01:57;2.03;;;1.90;;
4909;SDS011;2470;49.868;8.660;2023-05-10T04:04:23;7.93;;;2.10;;
4909;SDS011;2470;49.868;8.660;2023-05-10T04:06:48;2.13;;;1.93;;
4909;SDS011;2470;49.868;8.660;2023-05-10T04:09:14;3.17;;;2.10;;
4909;SDS011;2470;49.868;8.660;2023-05-10T04:11:41;1.67;;;1.53;;
4909;SDS011;2470;49.868;8.660;2023-05-10T04:14:06;3.03;;;2.17;;
4909;SDS011;2470;49.868;8.660;2023-05-10T04:16:32;1.87;;;1.70;;
4909;SDS011;2470;49.868;8.660;2023-05-10T04:18:57;3.23;;;2.27;;
4909;SDS011;2470;49.868;8.660;2023-05-10T04:21:23;3.53;;;2.40;;
4909;SDS011;2470;49.868;8.660;2023-05-10T04:23:48;3.13;;;1.80;;
4909;SDS011;2470;49.868;8.660;2023-05-10T04:26:14;3.03;;;2.10;;
4909;SDS011;2470;49.868;8.660;2023-05-10T04:28:39;2.17;;;1.97;;
4909;SDS011;2470;49.868;8.660;2023-05-10T04:31:05;1.90;;;1.80;;
4909;SDS011;2470;49.868;8.660;2023-05-10T04:33:32;2.13;;;1.90;;
4909;SDS011;2470;49.868;8.660;2023-05-10T04:35:59;2.33;;;2.13;;
4909;SDS011;2470;49.868;8.660;2023-05-10T04:38:25;1.93;;;1.73;;
4909;SDS011;2470;49.868;8.660;2023-05-10T04:40:52;2.90;;;2.37;;
4909;SDS011;2470;49.868;8.660;2023-05-10T04:43:18;2.07;;;1.70;;
4909;SDS011;2470;49.868;8.660;2023-05-10T04:45:43;2.07;;;1.97;;
4909;SDS011;2470;49.868;8.660;2023-05-10T04:48:09;2.50;;;1.90;;
4909;SDS011;2470;49.868;8.660;2023-05-10T04:50:34;2.83;;;2.03;;
4909;SDS011;2470;49.868;8.660;2023-05-10T04:53:00;2.97;;;2.50;;
4909;SDS011;2470;49.868;8.660;2023-05-10T04:55:25;2.63;;;1.97;;
4909;SDS011;2470;49.868;8.660;2023-05-10T04:57:52;2.30;;;2.10;;
4909;SDS011;2470;49.868;8.660;2023-05-10T05:00:18;3.10;;;2.20;;
4909;SDS011;2470;49.868;8.660;2023-05-10T05:02:44;3.33;;;2.37;;
4909;SDS011;2470;49.868;8.660;2023-05-10T05:05:10;4.03;;;2.80;;
4909;SDS011;2470;49.868;8.660;2023-05-10T05:07:36;2.23;;;2.03;;
4909;SDS011;2470;49.868;8.660;2023-05-10T05:10:03;3.13;;;2.80;;
4909;SDS011;2470;49.868;8.660;2023-05-10T05:12:32;3.37;;;1.93;;
4909;SDS011;2470;49.868;8.660;2023-05-10T05:14:58;3.40;;;2.00;;
4909;SDS011;2470;49.868;8.660;2023-05-10T05:17:23;2.70;;;2.27;;
4909;SDS011;2470;49.868;8.660;2023-05-10T05:19:49;2.33;;;1.90;;
4909;SDS011;2470;49.868;8.660;2023-05-10T05:22:14;5.00;;;2.27;;
4909;SDS011;2470;49.868;8.660;2023-05-10T05:24:40;3.10;;;2.13;;
4909;SDS011;2470;49.868;8.660;2023-05-10T05:27:05;3.70;;;2.70;;
4909;SDS011;2470;49.868;8.660;2023-05-10T05:29:31;5.27;;;2.50;;
4909;SDS011;2470;49.868;8.660;2023-05-10T05:31:56;2.87;;;2.53;;
4909;SDS011;2470;49.868;8.660;2023-05-10T05:34:22;4.47;;;2.13;;
4909;SDS011;2470;49.868;8.660;2023-05-10T05:36:48;3.93;;;2.67;;
4909;SDS011;2470;49.868;8.660;2023-05-10T05:39:13;3.87;;;2.20;;
4909;SDS011;2470;49.868;8.660;2023-05-10T05:41:39;2.80;;;2.10;;
4909;SDS011;2470;49.868;8.660;2023-05-10T05:44:04;2.57;;;2.37;;
4909;SDS011;2470;49.868;8.660;2023-05-10T05:46:30;3.47;;;2.23;;
4909;SDS011;2470;49.868;8.660;2023-05-10T05:48:55;3.90;;;1.97;;
4909;SDS011;2470;49.868;8.660;2023-05-10T05:51:21;2.73;;;2.40;;
4909;SDS011;2470;49.868;8.660;2023-05-10T05:53:47;3.10;;;2.67;;
4909;SDS011;2470;49.868;8.660;2023-05-10T05:56:12;2.80;;;2.50;;
4909;SDS011;2470;49.868;8.660;2023-05-10T05:58:38;11.87;;;2.37;;
4909;SDS011;2470;49.868;8.660;2023-05-10T06:01:03;3.57;;;2.50;;
4909;SDS011;2470;49.868;8.660;2023-05-10T06:03:29;5.33;;;2.50;;
4909;SDS011;2470;49.868;8.660;2023-05-10T06:05:54;2.80;;;2.07;;
4909;SDS011;2470;49.868;8.660;2023-05-10T06:08:20;5.10;;;2.13;;
4909;SDS011;2470;49.868;8.660;2023-05-10T06:10:45;2.58;;;2.35;;
4909;SDS011;2470;49.868;8.660;2023-05-10T06:13:11;2.60;;;2.27;;
4909;SDS011;2470;49.868;8.660;2023-05-10T06:15:37;2.90;;;2.53;;
4909;SDS011;2470;49.868;8.660;2023-05-10T06:18:03;5.87;;;2.87;;
4909;SDS011;2470;49.868;8.660;2023-05-10T06:20:29;1.83;;;1.73;;
4909;SDS011;2470;49.868;8.660;2023-05-10T06:22:56;4.63;;;2.30;;
4909;SDS011;2470;49.868;8.660;2023-05-10T06:25:22;2.25;;;2.05;;
4909;SDS011;2470;49.868;8.660;2023-05-10T06:27:48;2.70;;;2.45;;
4909;SDS011;2470;49.868;8.660;2023-05-10T06:30:13;3.20;;;2.47;;
4909;SDS011;2470;49.868;8.660;2023-05-10T06:32:39;2.22;;;2.03;;
4909;SDS011;2470;49.868;8.660;2023-05-10T06:35:05;2.55;;;2.35;;
4909;SDS011;2470;49.868;8.660;2023-05-10T06:37:31;3.17;;;2.42;;
4909;SDS011;2470;49.868;8.660;2023-05-10T06:39:56;2.70;;;2.47;;
4909;SDS011;2470;49.868;8.660;2023-05-10T06:42:22;2.72;;;2.53;;
4909;SDS011;2470;49.868;8.660;2023-05-10T06:44:48;3.10;;;2.60;;
4909;SDS011;2470;49.868;8.660;2023-05-10T06:47:14;6.15;;;3.17;;
4909;SDS011;2470;49.868;8.660;2023-05-10T06:49:39;3.35;;;2.22;;
4909;SDS011;2470;49.868;8.660;2023-05-10T06:52:05;5.22;;;2.50;;
4909;SDS011;2470;49.868;8.660;2023-05-10T06:54:30;2.00;;;1.90;;
4909;SDS011;2470;49.868;8.660;2023-05-10T06:56:56;3.22;;;2.20;;
4909;SDS011;2470;49.868;8.660;2023-05-10T06:59:21;4.43;;;2.80;;
4909;SDS011;2470;49.868;8.660;2023-05-10T07:01:47;4.43;;;2.80;;
4909;SDS011;2470;49.868;8.660;2023-05-10T07:04:12;5.18;;;3.08;;
4909;SDS011;2470;49.868;8.660;2023-05-10T07:06:38;4.72;;;2.88;;
4909;SDS011;2470;49.868;8.660;2023-05-10T07:09:04;3.70;;;2.70;;
4909;SDS011;2470;49.868;8.660;2023-05-10T07:11:29;3.55;;;2.63;;
4909;SDS011;2470;49.868;8.660;2023-05-10T07:13:55;3.58;;;3.03;;
4909;SDS011;2470;49.868;8.660;2023-05-10T07:16:20;3.60;;;2.53;;
4909;SDS011;2470;49.868;8.660;2023-05-10T07:18:46;3.50;;;2.90;;
4909;SDS011;2470;49.868;8.660;2023-05-10T07:21:12;3.72;;;3.15;;
4909;SDS011;2470;49.868;8.660;2023-05-10T07:23:37;4.90;;;3.33;;
4909;SDS011;2470;49.868;8.660;2023-05-10T07:26:03;3.38;;;2.78;;
4909;SDS011;2470;49.868;8.660;2023-05-10T07:28:28;5.18;;;3.50;;
4909;SDS011;2470;49.868;8.660;2023-05-10T07:30:54;3.70;;;2.90;;
4909;SDS011;2470;49.868;8.660;2023-05-10T07:33:19;3.95;;;2.92;;
4909;SDS011;2470;49.868;8.660;2023-05-10T07:35:45;3.35;;;3.05;;
4909;SDS011;2470;49.868;8.660;2023-05-10T07:38:11;3.38;;;3.00;;
4909;SDS011;2470;49.868;8.660;2023-05-10T07:40:36;3.10;;;2.47;;
4909;SDS011;2470;49.868;8.660;2023-05-10T07:43:03;3.20;;;2.35;;
4909;SDS011;2470;49.868;8.660;2023-05-10T07:45:28;3.58;;;2.35;;
4909;SDS011;2470;49.868;8.660;2023-05-10T07:47:54;2.45;;;1.95;;
4909;SDS011;2470;49.868;8.660;2023-05-10T07:50:19;4.05;;;2.80;;
4909;SDS011;2470;49.868;8.660;2023-05-10T07:52:46;2.90;;;2.20;;
4909;SDS011;2470;49.868;8.660;2023-05-10T07:55:11;2.88;;;2.22;;
4909;SDS011;2470;49.868;8.660;2023-05-10T07:57:37;3.42;;;2.65;;
4909;SDS011;2470;49.868;8.660;2023-05-10T08:00:03;3.38;;;2.63;;
4909;SDS011;2470;49.868;8.660;2023-05-10T08:02:29;2.00;;;1.85;;
4909;SDS011;2470;49.868;8.660;2023-05-10T08:04:55;4.93;;;2.25;;
4909;SDS011;2470;49.868;8.660;2023-05-10T08:07:20;4.05;;;2.03;;
4909;SDS011;2470;49.868;8.660;2023-05-10T08:09:46;3.65;;;2.33;;
4909;SDS011;2470;49.868;8.660;2023-05-10T08:12:11;2.55;;;1.90;;
4909;SDS011;2470;49.868;8.660;2023-05-10T08:14:37;5.63;;;2.50;;
4909;SDS011;2470;49.868;8.660;2023-05-10T08:17:03;2.88;;;2.10;;
4909;SDS011;2470;49.868;8.660;2023-05-10T08:19:28;2.50;;;2.08;;
4909;SDS011;2470;49.868;8.660;2023-05-10T08:21:54;2.15;;;1.77;;
4909;SDS011;2470;49.868;8.660;2023-05-10T08:24:20;2.15;;;1.95;;
4909;SDS011;2470;49.868;8.660;2023-05-10T08:26:46;2.00;;;1.80;;
4909;SDS011;2470;49.868;8.660;2023-05-10T08:29:12;2.60;;;1.90;;
4909;SDS011;2470;49.868;8.660;2023-05-10T08:31:38;2.45;;;1.75;;
4909;SDS011;2470;49.868;8.660;2023-05-10T08:34:04;6.22;;;2.88;;
4909;SDS011;2470;49.868;8.660;2023-05-10T08:36:29;3.03;;;2.30;;
4909;SDS011;2470;49.868;8.660;2023-05-10T08:38:56;3.50;;;1.90;;
4909;SDS011;2470;49.868;8.660;2023-05-10T08:41:23;2.28;;;1.83;;
4909;SDS011;2470;49.868;8.660;2023-05-10T08:43:51;5.22;;;2.13;;
4909;SDS011;2470;49.868;8.660;2023-05-10T08:46:21;2.47;;;2.28;;
4909;SDS011;2470;49.868;8.660;2023-05-10T08:48:48;1.70;;;1.60;;
4909;SDS011;2470;49.868;8.660;2023-05-10T08:51:17;3.05;;;2.58;;
4909;SDS011;2470;49.868;8.660;2023-05-10T08:53:44;2.28;;;1.60;;
4909;SDS011;2470;49.868;8.660;2023-05-10T08:56:10;2.22;;;1.90;;
4909;SDS011;2470;49.868;8.660;2023-05-10T08:58:37;6.82;;;2.47;;
4909;SDS011;2470;49.868;8.660;2023-05-10T09:01:03;1.80;;;1.70;;
4909;SDS011;2470;49.868;8.660;2023-05-10T09:03:30;2.10;;;1.90;;
4909;SDS011;2470;49.868;8.660;2023-05-10T09:05:56;1.88;;;1.65;;
4909;SDS011;2470;49.868;8.660;2023-05-10T09:08:22;2.45;;;2.25;;
4909;SDS011;2470;49.868;8.660;2023-05-10T09:10:52;1.70;;;1.52;;
4909;SDS011;2470;49.868;8.660;2023-05-10T09:13:19;2.33;;;2.00;;
4909;SDS011;2470;49.868;8.660;2023-05-10T09:15:46;3.13;;;2.10;;
4909;SDS011;2470;49.868;8.660;2023-05-10T09:18:13;2.83;;;2.17;;
4909;SDS011;2470;49.868;8.660;2023-05-10T09:20:38;2.80;;;1.95;;
4909;SDS011;2470;49.868;8.660;2023-05-10T09:23:04;3.38;;;1.70;;
4909;SDS011;2470;49.868;8.660;2023-05-10T09:25:30;1.42;;;1.30;;
4909;SDS011;2470;49.868;8.660;2023-05-10T09:27:58;1.75;;;1.23;;
4909;SDS011;2470;49.868;8.660;2023-05-10T09:30:24;2.78;;;1.40;;
4909;SDS011;2470;49.868;8.660;2023-05-10T09:32:51;1.48;;;1.27;;
4909;SDS011;2470;49.868;8.660;2023-05-10T09:35:19;1.30;;;1.20;;
4909;SDS011;2470;49.868;8.660;2023-05-10T09:37:47;1.33;;;1.20;;
4909;SDS011;2470;49.868;8.660;2023-05-10T09:40:15;1.45;;;0.90;;
4909;SDS011;2470;49.868;8.660;2023-05-10T09:42:42;3.22;;;1.65;;
4909;SDS011;2470;49.868;8.660;2023-05-10T09:45:15;1.17;;;1.08;;
4909;SDS011;2470;49.868;8.660;2023-05-10T09:47:40;1.20;;;1.10;;
4909;SDS011;2470;49.868;8.660;2023-05-10T09:50:06;1.80;;;1.17;;
4909;SDS011;2470;49.868;8.660;2023-05-10T09:55:26;0.90;;;0.90;;
4909;SDS011;2470;49.868;8.660;2023-05-10T09:58:10;1.23;;;1.05;;
4909;SDS011;2470;49.868;8.660;2023-05-10T10:00:37;1.30;;;1.20;;
4909;SDS011;2470;49.868;8.660;2023-05-10T10:03:05;1.08;;;1.00;;
4909;SDS011;2470;49.868;8.660;2023-05-10T10:05:32;1.42;;;1.33;;
4909;SDS011;2470;49.868;8.660;2023-05-10T10:07:59;1.35;;;1.25;;
4909;SDS011;2470;49.868;8.660;2023-05-10T10:10:26;1.42;;;1.33;;
4909;SDS011;2470;49.868;8.660;2023-05-10T10:12:52;1.65;;;1.27;;
4909;SDS011;2470;49.868;8.660;2023-05-10T10:15:18;1.20;;;1.10;;
4909;SDS011;2470;49.868;8.660;2023-05-10T10:17:48;1.25;;;1.15;;
4909;SDS011;2470;49.868;8.660;2023-05-10T10:20:15;1.83;;;1.13;;
4909;SDS011;2470;49.868;8.660;2023-05-10T10:22:45;1.10;;;1.00;;
4909;SDS011;2470;49.868;8.660;2023-05-10T10:25:31;1.00;;;1.00;;
4909;SDS011;2470;49.868;8.660;2023-05-10T10:28:01;1.45;;;1.10;;
4909;SDS011;2470;49.868;8.660;2023-05-10T10:33:13;2.45;;;1.10;;
4909;SDS011;2470;49.868;8.660;2023-05-10T10:35:53;1.30;;;1.20;;
4909;SDS011;2470;49.868;8.660;2023-05-10T10:38:20;1.38;;;1.23;;
4909;SDS011;2470;49.868;8.660;2023-05-10T10:40:46;1.05;;;1.00;;
4909;SDS011;2470;49.868;8.660;2023-05-10T10:43:25;3.17;;;1.80;;
4909;SDS011;2470;49.868;8.660;2023-05-10T10:51:39;1.83;;;1.15;;
4909;SDS011;2470;49.868;8.660;2023-05-10T10:54:11;2.53;;;1.23;;
4909;SDS011;2470;49.868;8.660;2023-05-10T10:56:37;2.75;;;1.70;;
4909;SDS011;2470;49.868;8.660;2023-05-10T10:59:03;0.90;;;0.90;;
4909;SDS011;2470;49.868;8.660;2023-05-10T11:01:34;9.10;;;1.67;;
4909;SDS011;2470;49.868;8.660;2023-05-10T11:06:32;2.97;;;1.10;;
4909;SDS011;2470;49.868;8.660;2023-05-10T11:09:07;1.63;;;1.38;;
4909;SDS011;2470;49.868;8.660;2023-05-10T11:11:34;5.25;;;1.45;;
4909;SDS011;2470;49.868;8.660;2023-05-10T11:14:07;3.50;;;2.65;;
4909;SDS011;2470;49.868;8.660;2023-05-10T11:16:42;1.65;;;1.30;;
4909;SDS011;2470;49.868;8.660;2023-05-10T11:19:11;1.30;;;1.13;;
4909;SDS011;2470;49.868;8.660;2023-05-10T11:22:12;0.80;;;0.80;;
4909;SDS011;2470;49.868;8.660;2023-05-10T11:24:30;1.55;;;1.25;;
4909;SDS011;2470;49.868;8.660;2023-05-10T11:26:55;10.25;;;1.90;;
4909;SDS011;2470;49.868;8.660;2023-05-10T11:29:21;2.42;;;1.30;;
4909;SDS011;2470;49.868;8.660;2023-05-10T11:31:47;1.25;;;1.15;;
4909;SDS011;2470;49.868;8.660;2023-05-10T11:34:27;1.38;;;1.27;;
4909;SDS011;2470;49.868;8.660;2023-05-10T11:36:54;3.05;;;1.92;;
4909;SDS011;2470;49.868;8.660;2023-05-10T11:39:20;1.30;;;1.20;;
4909;SDS011;2470;49.868;8.660;2023-05-10T11:41:49;1.33;;;1.15;;
4909;SDS011;2470;49.868;8.660;2023-05-10T11:44:14;1.10;;;1.00;;
4909;SDS011;2470;49.868;8.660;2023-05-10T11:46:40;2.38;;;1.30;;
4909;SDS011;2470;49.868;8.660;2023-05-10T11:49:06;3.03;;;1.17;;
4909;SDS011;2470;49.868;8.660;2023-05-10T11:51:33;1.30;;;1.20;;
4909;SDS011;2470;49.868;8.660;2023-05-10T11:54:05;1.20;;;1.10;;
4909;SDS011;2470;49.868;8.660;2023-05-10T11:56:40;1.80;;;1.23;;
4909;SDS011;2470;49.868;8.660;2023-05-10T11:59:06;1.33;;;1.23;;
4909;SDS011;2470;49.868;8.660;2023-05-10T12:01:32;2.00;;;0.88;;
4909;SDS011;2470;49.868;8.660;2023-05-10T12:03:58;1.00;;;0.90;;
4909;SDS011;2470;49.868;8.660;2023-05-10T12:06:28;1.35;;;1.20;;
4909;SDS011;2470;49.868;8.660;2023-05-10T12:08:56;1.10;;;1.00;;
4909;SDS011;2470;49.868;8.660;2023-05-10T12:11:27;1.35;;;1.00;;
4909;SDS011;2470;49.868;8.660;2023-05-10T12:13:58;1.30;;;1.20;;
4909;SDS011;2470;49.868;8.660;2023-05-10T12:16:27;1.05;;;0.95;;
4909;SDS011;2470;49.868;8.660;2023-05-10T12:18:59;1.50;;;1.02;;
4909;SDS011;2470;49.868;8.660;2023-05-10T12:21:30;1.00;;;0.90;;
4909;SDS011;2470;49.868;8.660;2023-05-10T12:24:02;0.80;;;0.80;;
4909;SDS011;2470;49.868;8.660;2023-05-10T12:26:33;1.58;;;1.25;;
4909;SDS011;2470;49.868;8.660;2023-05-10T12:29:12;1.95;;;1.55;;
4909;SDS011;2470;49.868;8.660;2023-05-10T12:32:03;1.33;;;1.10;;
4909;SDS011;2470;49.868;8.660;2023-05-10T12:34:35;0.90;;;0.90;;
4909;SDS011;2470;49.868;8.660;2023-05-10T12:37:03;1.00;;;0.90;;
4909;SDS011;2470;49.868;8.660;2023-05-10T12:39:43;1.45;;;0.90;;
4909;SDS011;2470;49.868;8.660;2023-05-10T12:42:11;3.03;;;1.27;;
4909;SDS011;2470;49.868;8.660;2023-05-10T12:44:39;0.80;;;0.80;;
4909;SDS011;2470;49.868;8.660;2023-05-10T12:47:06;1.00;;;0.90;;
4909;SDS011;2470;49.868;8.660;2023-05-10T12:49:35;1.23;;;1.00;;
4909;SDS011;2470;49.868;8.660;2023-05-10T12:52:01;0.90;;;0.90;;
4909;SDS011;2470;49.868;8.660;2023-05-10T12:54:27;1.50;;;0.90;;
4909;SDS011;2470;49.868;8.660;2023-05-10T12:56:52;0.82;;;0.82;;
4909;SDS011;2470;49.868;8.660;2023-05-10T12:59:18;0.82;;;0.82;;
4909;SDS011;2470;49.868;8.660;2023-05-10T13:01:43;1.75;;;1.27;;
4909;SDS011;2470;49.868;8.660;2023-05-10T13:04:09;0.82;;;0.80;;
4909;SDS011;2470;49.868;8.660;2023-05-10T13:06:34;1.00;;;0.90;;
4909;SDS011;2470;49.868;8.660;2023-05-10T13:09:00;1.00;;;0.90;;
4909;SDS011;2470;49.868;8.660;2023-05-10T13:11:26;1.08;;;0.90;;
4909;SDS011;2470;49.868;8.660;2023-05-10T13:13:51;1.58;;;1.27;;
4909;SDS011;2470;49.868;8.660;2023-05-10T13:16:17;1.00;;;1.00;;
4909;SDS011;2470;49.868;8.660;2023-05-10T13:18:42;2.55;;;1.10;;
4909;SDS011;2470;49.868;8.660;2023-05-10T13:21:08;2.78;;;1.35;;
4909;SDS011;2470;49.868;8.660;2023-05-10T13:23:33;1.65;;;1.40;;
4909;SDS011;2470;49.868;8.660;2023-05-10T13:25:59;4.97;;;1.67;;
4909;SDS011;2470;49.868;8.660;2023-05-10T13:28:24;1.30;;;1.20;;
4909;SDS011;2470;49.868;8.660;2023-05-10T13:30:51;3.83;;;1.63;;
4909;SDS011;2470;49.868;8.660;2023-05-10T13:33:16;2.42;;;1.48;;
4909;SDS011;2470;49.868;8.660;2023-05-10T13:35:42;1.33;;;1.02;;
4909;SDS011;2470;49.868;8.660;2023-05-10T13:38:07;1.00;;;0.90;;
4909;SDS011;2470;49.868;8.660;2023-05-10T13:40:33;1.35;;;1.05;;
4909;SDS011;2470;49.868;8.660;2023-05-10T13:42:59;1.60;;;0.90;;
4909;SDS011;2470;49.868;8.660;2023-05-10T13:45:24;1.55;;;1.20;;
4909;SDS011;2470;49.868;8.660;2023-05-10T13:47:50;1.63;;;1.35;;
4909;SDS011;2470;49.868;8.660;2023-05-10T13:50:16;1.55;;;1.10;;
4909;SDS011;2470;49.868;8.660;2023-05-10T13:52:43;2.05;;;1.30;;
4909;SDS011;2470;49.868;8.660;2023-05-10T13:55:08;1.95;;;0.98;;
4909;SDS011;2470;49.868;8.660;2023-05-10T13:57:34;1.40;;;0.90;;
4909;SDS011;2470;49.868;8.660;2023-05-10T14:00:01;2.35;;;1.20;;
4909;SDS011;2470;49.868;8.660;2023-05-10T14:02:26;3.33;;;1.40;;
4909;SDS011;2470;49.868;8.660;2023-05-10T14:04:52;3.25;;;1.25;;
4909;SDS011;2470;49.868;8.660;2023-05-10T14:07:17;1.15;;;1.05;;
4909;SDS011;2470;49.868;8.660;2023-05-10T14:09:43;1.10;;;1.00;;
4909;SDS011;2470;49.868;8.660;2023-05-10T14:12:08;1.90;;;1.20;;
4909;SDS011;2470;49.868;8.660;2023-05-10T14:14:34;1.40;;;1.20;;
4909;SDS011;2470;49.868;8.660;2023-05-10T14:17:00;1.13;;;1.08;;
4909;SDS011;2470;49.868;8.660;2023-05-10T14:19:25;1.08;;;1.00;;
4909;SDS011;2470;49.868;8.660;2023-05-10T14:21:52;3.30;;;1.25;;
4909;SDS011;2470;49.868;8.660;2023-05-10T14:24:17;1.95;;;1.40;;
4909;SDS011;2470;49.868;8.660;2023-05-10T14:26:43;1.02;;;0.98;;
4909;SDS011;2470;49.868;8.660;2023-05-10T14:29:08;1.35;;;1.25;;
4909;SDS011;2470;49.868;8.660;2023-05-10T14:31:34;1.17;;;1.08;;
4909;SDS011;2470;49.868;8.660;2023-05-10T14:34:00;4.22;;;1.02;;
4909;SDS011;2470;49.868;8.660;2023-05-10T14:36:25;1.25;;;1.10;;
4909;SDS011;2470;49.868;8.660;2023-05-10T14:38:51;0.90;;;0.90;;
4909;SDS011;2470;49.868;8.660;2023-05-10T14:41:17;1.52;;;1.20;;
4909;SDS011;2470;49.868;8.660;2023-05-10T14:43:43;1.58;;;0.98;;
4909;SDS011;2470;49.868;8.660;2023-05-10T14:46:08;1.50;;;1.00;;
4909;SDS011;2470;49.868;8.660;2023-05-10T14:48:34;1.13;;;0.93;;
4909;SDS011;2470;49.868;8.660;2023-05-10T14:50:59;2.15;;;1.20;;
4909;SDS011;2470;49.868;8.660;2023-05-10T14:53:25;1.23;;;1.00;;
4909;SDS011;2470;49.868;8.660;2023-05-10T14:55:51;2.35;;;1.00;;
4909;SDS011;2470;49.868;8.660;2023-05-10T14:58:16;0.90;;;0.90;;
4909;SDS011;2470;49.868;8.660;2023-05-10T15:00:41;1.70;;;1.00;;
4909;SDS011;2470;49.868;8.660;2023-05-10T15:03:08;2.67;;;1.35;;
4909;SDS011;2470;49.868;8.660;2023-05-10T15:05:34;0.90;;;0.90;;
4909;SDS011;2470;49.868;8.660;2023-05-10T15:07:59;1.60;;;1.05;;
4909;SDS011;2470;49.868;8.660;2023-05-10T15:10:25;8.15;;;1.45;;
4909;SDS011;2470;49.868;8.660;2023-05-10T15:12:50;1.35;;;0.80;;
4909;SDS011;2470;49.868;8.660;2023-05-10T15:15:16;1.30;;;0.90;;
4909;SDS011;2470;49.868;8.660;2023-05-10T15:17:41;4.40;;;1.02;;
4909;SDS011;2470;49.868;8.660;2023-05-10T15:20:07;2.13;;;1.15;;
4909;SDS011;2470;49.868;8.660;2023-05-10T15:22:33;1.63;;;1.20;;
4909;SDS011;2470;49.868;8.660;2023-05-10T15:24:58;1.20;;;1.10;;
4909;SDS011;2470;49.868;8.660;2023-05-10T15:27:24;1.20;;;1.08;;
4909;SDS011;2470;49.868;8.660;2023-05-10T15:29:50;1.88;;;1.27;;
4909;SDS011;2470;49.868;8.660;2023-05-10T15:32:16;1.42;;;0.73;;
4909;SDS011;2470;49.868;8.660;2023-05-10T15:34:41;1.88;;;1.05;;
4909;SDS011;2470;49.868;8.660;2023-05-10T15:37:07;1.20;;;1.10;;
4909;SDS011;2470;49.868;8.660;2023-05-10T15:39:32;2.88;;;1.08;;
4909;SDS011;2470;49.868;8.660;2023-05-10T15:41:58;0.80;;;0.80;;